Terminal Aerodrome Forecast
Issued by NWS Omaha/Valley, NE

Home | Current Version | Previous Version | Text Only | Print | Product List | Glossary On
Versions: 1 2 3 4 5 6 7 8 9 10 11 12 13 14 15 16 17 18 19 20 21 22 23 24 25 26 27 28 29 30 31 32 33 34 35 36 37 38 39 40 41 42 43 44 45 46 47
141
FTUS43 KOAX 271007 AAA
TAFOFK
TAF AMD
KOFK 271007Z 2710/2806 30008KT P6SM SCT025
      TEMPO 2711/2715 BKN025
     FM271500 32010KT P6SM BKN025
     FM272000 35008KT P6SM SCT025 SCT100
     FM280000 06005KT P6SM BKN100
     FM280500 05005KT P6SM BKN050=

USA.gov is the U.S. government's official web portal to all federal, state and local government web resources and services.